sensor_id;sensor_type;location;lat;lon;timestamp;temperature;humidity
33271;DHT22;53180;51.344;6.152;2023-04-01T00:01:14;9.90;90.10
33271;DHT22;53180;51.344;6.152;2023-04-01T00:03:45;9.90;90.20
33271;DHT22;53180;51.344;6.152;2023-04-01T00:06:16;10.00;90.20
33271;DHT22;53180;51.344;6.152;2023-04-01T00:08:45;10.00;90.30
33271;DHT22;53180;51.344;6.152;2023-04-01T00:11:14;9.90;90.30
33271;DHT22;53180;51.344;6.152;2023-04-01T00:13:43;9.90;90.40
33271;DHT22;53180;51.344;6.152;2023-04-01T00:16:12;9.90;90.50
33271;DHT22;53180;51.344;6.152;2023-04-01T00:18:49;9.90;90.70
33271;DHT22;53180;51.344;6.152;2023-04-01T00:21:19;9.90;90.70
33271;DHT22;53180;51.344;6.152;2023-04-01T00:23:48;9.90;90.60
33271;DHT22;53180;51.344;6.152;2023-04-01T00:26:18;9.90;90.70
33271;DHT22;53180;51.344;6.152;2023-04-01T00:28:48;9.90;90.70
33271;DHT22;53180;51.344;6.152;2023-04-01T00:31:17;9.90;90.80
33271;DHT22;53180;51.344;6.152;2023-04-01T00:33:45;9.90;90.80
33271;DHT22;53180;51.344;6.152;2023-04-01T00:36:16;9.80;90.80
33271;DHT22;53180;51.344;6.152;2023-04-01T00:38:45;9.90;90.90
33271;DHT22;53180;51.344;6.152;2023-04-01T00:41:15;9.90;90.80
33271;DHT22;53180;51.344;6.152;2023-04-01T00:43:46;9.90;90.70
33271;DHT22;53180;51.344;6.152;2023-04-01T00:46:16;9.90;90.70
33271;DHT22;53180;51.344;6.152;2023-04-01T00:48:48;9.90;90.60
33271;DHT22;53180;51.344;6.152;2023-04-01T00:51:22;9.90;90.60
33271;DHT22;53180;51.344;6.152;2023-04-01T00:53:54;9.90;90.50
33271;DHT22;53180;51.344;6.152;2023-04-01T00:56:26;9.80;90.50
33271;DHT22;53180;51.344;6.152;2023-04-01T00:59:00;9.80;90.60
33271;DHT22;53180;51.344;6.152;2023-04-01T01:01:31;9.80;90.50
33271;DHT22;53180;51.344;6.152;2023-04-01T01:03:59;9.80;90.70
33271;DHT22;53180;51.344;6.152;2023-04-01T01:06:39;9.80;90.70
33271;DHT22;53180;51.344;6.152;2023-04-01T01:09:26;9.80;90.70
33271;DHT22;53180;51.344;6.152;2023-04-01T01:12:05;9.80;90.70
33271;DHT22;53180;51.344;6.152;2023-04-01T01:14:44;9.80;90.70
33271;DHT22;53180;51.344;6.152;2023-04-01T01:17:35;9.80;90.60
33271;DHT22;53180;51.344;6.152;2023-04-01T01:23:45;9.80;90.60
33271;DHT22;53180;51.344;6.152;2023-04-01T01:29:50;9.80;90.50
33271;DHT22;53180;51.344;6.152;2023-04-01T01:32:59;9.80;90.70
33271;DHT22;53180;51.344;6.152;2023-04-01T01:35:38;9.80;90.70
33271;DHT22;53180;51.344;6.152;2023-04-01T01:38:11;9.80;91.00
33271;DHT22;53180;51.344;6.152;2023-04-01T01:40:43;9.80;91.20
33271;DHT22;53180;51.344;6.152;2023-04-01T01:43:17;9.70;91.40
33271;DHT22;53180;51.344;6.152;2023-04-01T01:45:50;9.70;91.60
33271;DHT22;53180;51.344;6.152;2023-04-01T01:48:20;9.70;91.70
33271;DHT22;53180;51.344;6.152;2023-04-01T01:50:52;9.60;91.80
33271;DHT22;53180;51.344;6.152;2023-04-01T01:53:20;9.60;92.00
33271;DHT22;53180;51.344;6.152;2023-04-01T01:55:49;9.60;92.10
33271;DHT22;53180;51.344;6.152;2023-04-01T01:58:21;9.60;92.20
33271;DHT22;53180;51.344;6.152;2023-04-01T02:00:53;9.50;92.20
33271;DHT22;53180;51.344;6.152;2023-04-01T02:03:25;9.60;92.40
33271;DHT22;53180;51.344;6.152;2023-04-01T02:05:58;9.50;92.40
33271;DHT22;53180;51.344;6.152;2023-04-01T02:08:31;9.50;92.50
33271;DHT22;53180;51.344;6.152;2023-04-01T02:11:04;9.50;92.60
33271;DHT22;53180;51.344;6.152;2023-04-01T02:13:37;9.60;92.60
33271;DHT22;53180;51.344;6.152;2023-04-01T02:16:11;9.60;92.60
33271;DHT22;53180;51.344;6.152;2023-04-01T02:18:44;9.60;92.80
33271;DHT22;53180;51.344;6.152;2023-04-01T02:21:16;9.50;92.80
33271;DHT22;53180;51.344;6.152;2023-04-01T02:23:46;9.50;92.90
33271;DHT22;53180;51.344;6.152;2023-04-01T02:26:15;9.50;92.90
33271;DHT22;53180;51.344;6.152;2023-04-01T02:28:46;9.50;92.90
33271;DHT22;53180;51.344;6.152;2023-04-01T02:31:16;9.50;93.00
33271;DHT22;53180;51.344;6.152;2023-04-01T02:33:45;9.50;93.00
33271;DHT22;53180;51.344;6.152;2023-04-01T02:36:16;9.50;93.10
33271;DHT22;53180;51.344;6.152;2023-04-01T02:38:45;9.50;93.10
33271;DHT22;53180;51.344;6.152;2023-04-01T02:41:14;9.50;93.10
33271;DHT22;53180;51.344;6.152;2023-04-01T02:43:43;9.50;93.10
33271;DHT22;53180;51.344;6.152;2023-04-01T02:46:11;9.50;93.20
33271;DHT22;53180;51.344;6.152;2023-04-01T02:48:39;9.50;93.20
33271;DHT22;53180;51.344;6.152;2023-04-01T02:51:08;9.50;93.30
33271;DHT22;53180;51.344;6.152;2023-04-01T02:53:38;9.50;93.30
33271;DHT22;53180;51.344;6.152;2023-04-01T02:56:06;9.50;93.30
33271;DHT22;53180;51.344;6.152;2023-04-01T02:58:34;9.50;93.30
33271;DHT22;53180;51.344;6.152;2023-04-01T03:01:03;9.50;93.30
33271;DHT22;53180;51.344;6.152;2023-04-01T03:03:31;9.50;93.40
33271;DHT22;53180;51.344;6.152;2023-04-01T03:06:05;9.50;93.40
33271;DHT22;53180;51.344;6.152;2023-04-01T03:08:33;9.50;93.40
33271;DHT22;53180;51.344;6.152;2023-04-01T03:11:03;9.50;93.40
33271;DHT22;53180;51.344;6.152;2023-04-01T03:13:32;9.50;93.40
33271;DHT22;53180;51.344;6.152;2023-04-01T03:16:01;9.50;93.40
33271;DHT22;53180;51.344;6.152;2023-04-01T03:18:29;9.50;93.50
33271;DHT22;53180;51.344;6.152;2023-04-01T03:21:12;9.50;93.50
33271;DHT22;53180;51.344;6.152;2023-04-01T03:23:42;9.50;93.50
33271;DHT22;53180;51.344;6.152;2023-04-01T03:26:11;9.50;93.50
33271;DHT22;53180;51.344;6.152;2023-04-01T03:28:40;9.40;93.50
33271;DHT22;53180;51.344;6.152;2023-04-01T03:31:09;9.50;93.60
33271;DHT22;53180;51.344;6.152;2023-04-01T03:33:38;9.50;93.60
33271;DHT22;53180;51.344;6.152;2023-04-01T03:36:07;9.50;93.60
33271;DHT22;53180;51.344;6.152;2023-04-01T03:38:35;9.40;93.60
33271;DHT22;53180;51.344;6.152;2023-04-01T03:41:04;9.40;93.70
33271;DHT22;53180;51.344;6.152;2023-04-01T03:43:34;9.50;93.70
33271;DHT22;53180;51.344;6.152;2023-04-01T03:46:02;9.40;93.70
33271;DHT22;53180;51.344;6.152;2023-04-01T03:48:30;9.40;93.70
33271;DHT22;53180;51.344;6.152;2023-04-01T03:50:58;9.40;93.80
33271;DHT22;53180;51.344;6.152;2023-04-01T03:53:27;9.40;93.70
33271;DHT22;53180;51.344;6.152;2023-04-01T03:55:55;9.40;93.80
33271;DHT22;53180;51.344;6.152;2023-04-01T03:58:23;9.40;93.80
33271;DHT22;53180;51.344;6.152;2023-04-01T04:00:53;9.40;93.80
33271;DHT22;53180;51.344;6.152;2023-04-01T04:03:22;9.40;93.80
33271;DHT22;53180;51.344;6.152;2023-04-01T04:05:50;9.40;93.80
33271;DHT22;53180;51.344;6.152;2023-04-01T04:08:19;9.40;93.80
33271;DHT22;53180;51.344;6.152;2023-04-01T04:10:54;9.40;93.90
33271;DHT22;53180;51.344;6.152;2023-04-01T04:13:23;9.40;93.90
33271;DHT22;53180;51.344;6.152;2023-04-01T04:15:52;9.40;93.90
33271;DHT22;53180;51.344;6.152;2023-04-01T04:18:21;9.40;94.00
33271;DHT22;53180;51.344;6.152;2023-04-01T04:20:49;9.40;94.00
33271;DHT22;53180;51.344;6.152;2023-04-01T04:23:18;9.40;94.00
33271;DHT22;53180;51.344;6.152;2023-04-01T04:25:54;9.30;94.00
33271;DHT22;53180;51.344;6.152;2023-04-01T04:28:25;9.30;94.00
33271;DHT22;53180;51.344;6.152;2023-04-01T04:30:56;9.40;94.00
33271;DHT22;53180;51.344;6.152;2023-04-01T04:33:24;9.30;94.00
33271;DHT22;53180;51.344;6.152;2023-04-01T04:35:55;9.30;94.00
33271;DHT22;53180;51.344;6.152;2023-04-01T04:38:25;9.30;94.00
33271;DHT22;53180;51.344;6.152;2023-04-01T04:40:54;9.30;94.10
33271;DHT22;53180;51.344;6.152;2023-04-01T04:43:23;9.30;94.10
33271;DHT22;53180;51.344;6.152;2023-04-01T04:45:51;9.30;94.10
33271;DHT22;53180;51.344;6.152;2023-04-01T04:48:21;9.30;94.10
33271;DHT22;53180;51.344;6.152;2023-04-01T04:50:50;9.30;94.20
33271;DHT22;53180;51.344;6.152;2023-04-01T04:53:19;9.30;94.20
33271;DHT22;53180;51.344;6.152;2023-04-01T04:55:48;9.30;94.20
33271;DHT22;53180;51.344;6.152;2023-04-01T04:58:18;9.30;94.20
33271;DHT22;53180;51.344;6.152;2023-04-01T05:00:46;9.30;94.20
33271;DHT22;53180;51.344;6.152;2023-04-01T05:03:15;9.30;94.20
33271;DHT22;53180;51.344;6.152;2023-04-01T05:05:50;9.30;94.20
33271;DHT22;53180;51.344;6.152;2023-04-01T05:08:19;9.30;94.20
33271;DHT22;53180;51.344;6.152;2023-04-01T05:10:48;9.30;94.20
33271;DHT22;53180;51.344;6.152;2023-04-01T05:13:16;9.20;94.20
33271;DHT22;53180;51.344;6.152;2023-04-01T05:15:44;9.30;94.20
33271;DHT22;53180;51.344;6.152;2023-04-01T05:18:14;9.30;94.20
33271;DHT22;53180;51.344;6.152;2023-04-01T05:20:46;9.20;94.20
33271;DHT22;53180;51.344;6.152;2023-04-01T05:23:17;9.20;94.20
33271;DHT22;53180;51.344;6.152;2023-04-01T05:25:47;9.20;94.30
33271;DHT22;53180;51.344;6.152;2023-04-01T05:28:19;9.20;94.30
33271;DHT22;53180;51.344;6.152;2023-04-01T05:30:48;9.20;94.20
33271;DHT22;53180;51.344;6.152;2023-04-01T05:33:16;9.20;94.20
33271;DHT22;53180;51.344;6.152;2023-04-01T05:35:45;9.20;94.30
33271;DHT22;53180;51.344;6.152;2023-04-01T05:38:14;9.20;94.30
33271;DHT22;53180;51.344;6.152;2023-04-01T05:40:42;9.20;94.30
33271;DHT22;53180;51.344;6.152;2023-04-01T05:43:11;9.20;94.40
33271;DHT22;53180;51.344;6.152;2023-04-01T05:45:39;9.20;94.40
33271;DHT22;53180;51.344;6.152;2023-04-01T05:48:08;9.20;94.40
33271;DHT22;53180;51.344;6.152;2023-04-01T05:50:36;9.20;94.40
33271;DHT22;53180;51.344;6.152;2023-04-01T05:53:04;9.20;94.40
33271;DHT22;53180;51.344;6.152;2023-04-01T05:55:34;9.20;94.40
33271;DHT22;53180;51.344;6.152;2023-04-01T05:58:03;9.20;94.40
33271;DHT22;53180;51.344;6.152;2023-04-01T06:00:32;9.20;94.50
33271;DHT22;53180;51.344;6.152;2023-04-01T06:03:00;9.20;94.50
33271;DHT22;53180;51.344;6.152;2023-04-01T06:05:30;9.20;94.50
33271;DHT22;53180;51.344;6.152;2023-04-01T06:08:08;9.10;94.50
33271;DHT22;53180;51.344;6.152;2023-04-01T06:10:50;9.10;94.60
33271;DHT22;53180;51.344;6.152;2023-04-01T06:13:37;9.20;94.60
33271;DHT22;53180;51.344;6.152;2023-04-01T06:16:24;9.20;94.60
33271;DHT22;53180;51.344;6.152;2023-04-01T06:19:16;9.10;94.60
33271;DHT22;53180;51.344;6.152;2023-04-01T06:22:21;9.20;94.60
33271;DHT22;53180;51.344;6.152;2023-04-01T06:25:24;9.10;94.70
33271;DHT22;53180;51.344;6.152;2023-04-01T06:28:22;9.10;94.70
33271;DHT22;53180;51.344;6.152;2023-04-01T06:31:15;9.10;94.70
33271;DHT22;53180;51.344;6.152;2023-04-01T06:34:08;9.10;94.80
33271;DHT22;53180;51.344;6.152;2023-04-01T06:37:01;9.20;94.80
33271;DHT22;53180;51.344;6.152;2023-04-01T06:39:51;9.10;94.80
33271;DHT22;53180;51.344;6.152;2023-04-01T06:42:53;9.20;94.80
33271;DHT22;53180;51.344;6.152;2023-04-01T06:45:34;9.10;94.80
33271;DHT22;53180;51.344;6.152;2023-04-01T06:51:19;9.10;94.80
33271;DHT22;53180;51.344;6.152;2023-04-01T06:53:58;9.10;94.80
33271;DHT22;53180;51.344;6.152;2023-04-01T06:56:30;9.10;94.90
33271;DHT22;53180;51.344;6.152;2023-04-01T06:59:02;9.10;94.90
33271;DHT22;53180;51.344;6.152;2023-04-01T07:01:39;9.20;94.90
33271;DHT22;53180;51.344;6.152;2023-04-01T07:04:13;9.20;94.90
33271;DHT22;53180;51.344;6.152;2023-04-01T07:06:46;9.20;94.90
33271;DHT22;53180;51.344;6.152;2023-04-01T07:09:19;9.20;94.90
33271;DHT22;53180;51.344;6.152;2023-04-01T07:11:50;9.20;94.90
33271;DHT22;53180;51.344;6.152;2023-04-01T07:14:25;9.20;95.00
33271;DHT22;53180;51.344;6.152;2023-04-01T07:17:02;9.20;95.00
33271;DHT22;53180;51.344;6.152;2023-04-01T07:19:39;9.20;95.00
33271;DHT22;53180;51.344;6.152;2023-04-01T07:22:19;9.20;95.00
33271;DHT22;53180;51.344;6.152;2023-04-01T07:24:54;9.20;95.00
33271;DHT22;53180;51.344;6.152;2023-04-01T07:27:24;9.20;95.00
33271;DHT22;53180;51.344;6.152;2023-04-01T07:29:55;9.20;95.00
33271;DHT22;53180;51.344;6.152;2023-04-01T07:32:28;9.30;95.00
33271;DHT22;53180;51.344;6.152;2023-04-01T07:35:17;9.20;95.00
33271;DHT22;53180;51.344;6.152;2023-04-01T07:38:02;9.30;95.00
33271;DHT22;53180;51.344;6.152;2023-04-01T07:40:42;9.20;95.00
33271;DHT22;53180;51.344;6.152;2023-04-01T07:43:26;9.30;95.10
33271;DHT22;53180;51.344;6.152;2023-04-01T07:46:13;9.30;95.10
33271;DHT22;53180;51.344;6.152;2023-04-01T07:48:54;9.30;95.10
33271;DHT22;53180;51.344;6.152;2023-04-01T07:51:30;9.30;95.10
33271;DHT22;53180;51.344;6.152;2023-04-01T07:54:05;9.30;95.10
33271;DHT22;53180;51.344;6.152;2023-04-01T07:56:43;9.30;95.10
33271;DHT22;53180;51.344;6.152;2023-04-01T07:59:19;9.30;95.10
33271;DHT22;53180;51.344;6.152;2023-04-01T08:01:54;9.30;95.10
33271;DHT22;53180;51.344;6.152;2023-04-01T08:04:41;9.30;95.10
33271;DHT22;53180;51.344;6.152;2023-04-01T08:07:18;9.30;95.10
33271;DHT22;53180;51.344;6.152;2023-04-01T08:09:55;9.40;95.10
33271;DHT22;53180;51.344;6.152;2023-04-01T08:12:38;9.40;95.10
33271;DHT22;53180;51.344;6.152;2023-04-01T08:15:17;9.40;95.20
33271;DHT22;53180;51.344;6.152;2023-04-01T08:18:00;9.40;95.20
33271;DHT22;53180;51.344;6.152;2023-04-01T08:20:37;9.40;95.20
33271;DHT22;53180;51.344;6.152;2023-04-01T08:23:14;9.50;95.20
33271;DHT22;53180;51.344;6.152;2023-04-01T08:25:48;9.60;95.20
33271;DHT22;53180;51.344;6.152;2023-04-01T08:28:25;9.60;95.20
33271;DHT22;53180;51.344;6.152;2023-04-01T08:31:01;9.70;95.20
33271;DHT22;53180;51.344;6.152;2023-04-01T08:33:33;9.70;95.20
33271;DHT22;53180;51.344;6.152;2023-04-01T08:36:06;9.70;95.10
33271;DHT22;53180;51.344;6.152;2023-04-01T08:38:40;9.80;95.10
33271;DHT22;53180;51.344;6.152;2023-04-01T08:41:46;9.80;95.10
33271;DHT22;53180;51.344;6.152;2023-04-01T08:48:22;9.80;95.00
33271;DHT22;53180;51.344;6.152;2023-04-01T08:51:22;9.80;94.90
33271;DHT22;53180;51.344;6.152;2023-04-01T08:57:01;9.80;94.70
33271;DHT22;53180;51.344;6.152;2023-04-01T08:59:48;9.80;94.70
33271;DHT22;53180;51.344;6.152;2023-04-01T09:05:47;9.70;94.70
33271;DHT22;53180;51.344;6.152;2023-04-01T09:08:40;9.70;94.60
33271;DHT22;53180;51.344;6.152;2023-04-01T09:11:31;9.70;94.60
33271;DHT22;53180;51.344;6.152;2023-04-01T09:14:23;9.70;94.60
33271;DHT22;53180;51.344;6.152;2023-04-01T09:20:27;9.80;94.60
33271;DHT22;53180;51.344;6.152;2023-04-01T09:23:28;9.80;94.60
33271;DHT22;53180;51.344;6.152;2023-04-01T09:26:22;9.90;94.70
33271;DHT22;53180;51.344;6.152;2023-04-01T09:29:08;9.90;94.60
33271;DHT22;53180;51.344;6.152;2023-04-01T09:32:03;9.90;94.50
33271;DHT22;53180;51.344;6.152;2023-04-01T09:34:53;9.90;94.40
33271;DHT22;53180;51.344;6.152;2023-04-01T09:37:33;10.00;94.40
33271;DHT22;53180;51.344;6.152;2023-04-01T09:40:21;10.00;94.50
33271;DHT22;53180;51.344;6.152;2023-04-01T09:43:18;10.00;94.40
33271;DHT22;53180;51.344;6.152;2023-04-01T09:49:18;10.00;94.40
33271;DHT22;53180;51.344;6.152;2023-04-01T09:52:18;10.00;94.50
33271;DHT22;53180;51.344;6.152;2023-04-01T09:55:14;10.00;94.40
33271;DHT22;53180;51.344;6.152;2023-04-01T09:58:30;10.00;94.50
33271;DHT22;53180;51.344;6.152;2023-04-01T10:01:42;10.10;94.50
33271;DHT22;53180;51.344;6.152;2023-04-01T10:07:58;10.00;94.40
33271;DHT22;53180;51.344;6.152;2023-04-01T10:14:27;10.10;94.30
33271;DHT22;53180;51.344;6.152;2023-04-01T10:17:37;10.10;94.30
33271;DHT22;53180;51.344;6.152;2023-04-01T10:23:52;10.20;94.40
33271;DHT22;53180;51.344;6.152;2023-04-01T10:30:39;10.20;94.30
33271;DHT22;53180;51.344;6.152;2023-04-01T10:33:44;10.20;94.40
33271;DHT22;53180;51.344;6.152;2023-04-01T10:36:48;10.20;94.40
33271;DHT22;53180;51.344;6.152;2023-04-01T10:46:05;10.20;94.30
33271;DHT22;53180;51.344;6.152;2023-04-01T10:49:21;10.20;94.30
33271;DHT22;53180;51.344;6.152;2023-04-01T10:52:40;10.20;94.30
33271;DHT22;53180;51.344;6.152;2023-04-01T10:56:06;10.10;94.20
33271;DHT22;53180;51.344;6.152;2023-04-01T10:59:15;10.10;94.20
33271;DHT22;53180;51.344;6.152;2023-04-01T11:08:57;10.10;94.30
33271;DHT22;53180;51.344;6.152;2023-04-01T11:15:37;10.10;94.40
33271;DHT22;53180;51.344;6.152;2023-04-01T11:21:53;10.10;94.50
33271;DHT22;53180;51.344;6.152;2023-04-01T11:25:19;10.10;94.60
33271;DHT22;53180;51.344;6.152;2023-04-01T11:31:21;10.00;94.50
33271;DHT22;53180;51.344;6.152;2023-04-01T11:34:16;10.00;94.40
33271;DHT22;53180;51.344;6.152;2023-04-01T11:37:04;10.00;94.40
33271;DHT22;53180;51.344;6.152;2023-04-01T11:39:43;10.00;94.20
33271;DHT22;53180;51.344;6.152;2023-04-01T11:42:24;10.00;94.10
33271;DHT22;53180;51.344;6.152;2023-04-01T11:45:07;10.00;94.20
33271;DHT22;53180;51.344;6.152;2023-04-01T11:47:58;10.00;94.20
33271;DHT22;53180;51.344;6.152;2023-04-01T11:50:52;10.00;94.20
33271;DHT22;53180;51.344;6.152;2023-04-01T11:53:40;10.00;94.30
33271;DHT22;53180;51.344;6.152;2023-04-01T11:56:34;10.00;94.30
33271;DHT22;53180;51.344;6.152;2023-04-01T11:59:30;10.00;94.30
33271;DHT22;53180;51.344;6.152;2023-04-01T12:02:18;10.00;94.30
33271;DHT22;53180;51.344;6.152;2023-04-01T12:05:13;10.10;94.30
33271;DHT22;53180;51.344;6.152;2023-04-01T12:08:10;10.10;94.30
33271;DHT22;53180;51.344;6.152;2023-04-01T12:10:48;10.10;94.40
33271;DHT22;53180;51.344;6.152;2023-04-01T12:13:30;10.10;94.40
33271;DHT22;53180;51.344;6.152;2023-04-01T12:16:16;10.10;94.40
33271;DHT22;53180;51.344;6.152;2023-04-01T12:18:57;10.10;94.40
33271;DHT22;53180;51.344;6.152;2023-04-01T12:21:34;10.10;94.30
33271;DHT22;53180;51.344;6.152;2023-04-01T12:24:36;10.10;94.40
33271;DHT22;53180;51.344;6.152;2023-04-01T12:27:20;10.20;94.40
33271;DHT22;53180;51.344;6.152;2023-04-01T12:30:30;10.20;94.40
33271;DHT22;53180;51.344;6.152;2023-04-01T12:36:21;10.20;94.30
33271;DHT22;53180;51.344;6.152;2023-04-01T12:39:22;10.10;94.30
33271;DHT22;53180;51.344;6.152;2023-04-01T12:42:11;10.10;94.30
33271;DHT22;53180;51.344;6.152;2023-04-01T12:44:56;10.20;94.20
33271;DHT22;53180;51.344;6.152;2023-04-01T12:48:04;10.20;94.10
33271;DHT22;53180;51.344;6.152;2023-04-01T12:50:53;10.20;94.20
33271;DHT22;53180;51.344;6.152;2023-04-01T12:54:10;10.20;94.10
33271;DHT22;53180;51.344;6.152;2023-04-01T12:57:00;10.20;94.10
33271;DHT22;53180;51.344;6.152;2023-04-01T12:59:48;10.20;94.20
33271;DHT22;53180;51.344;6.152;2023-04-01T13:02:38;10.20;94.20
33271;DHT22;53180;51.344;6.152;2023-04-01T13:05:27;10.20;94.20
33271;DHT22;53180;51.344;6.152;2023-04-01T13:08:31;10.20;94.10
33271;DHT22;53180;51.344;6.152;2023-04-01T13:11:15;10.20;94.10
33271;DHT22;53180;51.344;6.152;2023-04-01T13:14:30;10.30;94.20
33271;DHT22;53180;51.344;6.152;2023-04-01T13:17:15;10.30;94.10
33271;DHT22;53180;51.344;6.152;2023-04-01T13:19:52;10.30;94.10
33271;DHT22;53180;51.344;6.152;2023-04-01T13:22:41;10.30;93.90
33271;DHT22;53180;51.344;6.152;2023-04-01T13:25:23;10.40;93.90
33271;DHT22;53180;51.344;6.152;2023-04-01T13:28:00;10.40;93.70
33271;DHT22;53180;51.344;6.152;2023-04-01T13:30:38;10.40;93.70
33271;DHT22;53180;51.344;6.152;2023-04-01T13:33:17;10.50;93.80
33271;DHT22;53180;51.344;6.152;2023-04-01T13:36:03;10.50;93.70
33271;DHT22;53180;51.344;6.152;2023-04-01T13:38:56;10.50;93.60
33271;DHT22;53180;51.344;6.152;2023-04-01T13:41:39;10.60;93.70
33271;DHT22;53180;51.344;6.152;2023-04-01T13:44:19;10.60;93.60
33271;DHT22;53180;51.344;6.152;2023-04-01T13:50:15;10.50;93.50
33271;DHT22;53180;51.344;6.152;2023-04-01T13:56:03;10.60;93.50
33271;DHT22;53180;51.344;6.152;2023-04-01T13:58:55;10.50;93.30
33271;DHT22;53180;51.344;6.152;2023-04-01T14:01:37;10.50;93.30
33271;DHT22;53180;51.344;6.152;2023-04-01T14:04:38;10.50;93.40
33271;DHT22;53180;51.344;6.152;2023-04-01T14:07:31;10.50;93.50
33271;DHT22;53180;51.344;6.152;2023-04-01T14:10:11;10.50;93.60
33271;DHT22;53180;51.344;6.152;2023-04-01T14:12:49;10.40;93.40
33271;DHT22;53180;51.344;6.152;2023-04-01T14:15:36;10.40;93.50
33271;DHT22;53180;51.344;6.152;2023-04-01T14:18:45;10.30;93.40
33271;DHT22;53180;51.344;6.152;2023-04-01T14:21:32;10.40;93.40
33271;DHT22;53180;51.344;6.152;2023-04-01T14:24:23;10.30;93.50
33271;DHT22;53180;51.344;6.152;2023-04-01T14:27:25;10.30;93.40
33271;DHT22;53180;51.344;6.152;2023-04-01T14:30:27;10.30;93.50
33271;DHT22;53180;51.344;6.152;2023-04-01T14:33:24;10.40;93.60
33271;DHT22;53180;51.344;6.152;2023-04-01T14:36:15;10.40;93.50
33271;DHT22;53180;51.344;6.152;2023-04-01T14:39:08;10.40;93.70
33271;DHT22;53180;51.344;6.152;2023-04-01T14:41:48;10.40;93.80
33271;DHT22;53180;51.344;6.152;2023-04-01T14:44:38;10.40;93.80
33271;DHT22;53180;51.344;6.152;2023-04-01T14:47:34;10.40;93.80
33271;DHT22;53180;51.344;6.152;2023-04-01T14:50:14;10.40;93.90
33271;DHT22;53180;51.344;6.152;2023-04-01T14:52:54;10.50;94.00
33271;DHT22;53180;51.344;6.152;2023-04-01T14:55:32;10.50;94.10
33271;DHT22;53180;51.344;6.152;2023-04-01T14:58:10;10.50;94.00
33271;DHT22;53180;51.344;6.152;2023-04-01T15:00:52;10.40;94.00
33271;DHT22;53180;51.344;6.152;2023-04-01T15:03:28;10.40;93.90
33271;DHT22;53180;51.344;6.152;2023-04-01T15:06:20;10.30;93.90
33271;DHT22;53180;51.344;6.152;2023-04-01T15:09:07;10.30;94.00
33271;DHT22;53180;51.344;6.152;2023-04-01T15:11:51;10.30;94.00
33271;DHT22;53180;51.344;6.152;2023-04-01T15:14:34;10.30;94.10
33271;DHT22;53180;51.344;6.152;2023-04-01T15:17:42;10.20;94.10
33271;DHT22;53180;51.344;6.152;2023-04-01T15:20:47;10.30;94.20
33271;DHT22;53180;51.344;6.152;2023-04-01T15:23:27;10.30;94.30
33271;DHT22;53180;51.344;6.152;2023-04-01T15:26:33;10.30;94.50
33271;DHT22;53180;51.344;6.152;2023-04-01T15:29:27;10.30;94.50
33271;DHT22;53180;51.344;6.152;2023-04-01T15:32:16;10.20;94.60
33271;DHT22;53180;51.344;6.152;2023-04-01T15:34:50;10.20;94.60
33271;DHT22;53180;51.344;6.152;2023-04-01T15:37:31;10.20;94.60
33271;DHT22;53180;51.344;6.152;2023-04-01T15:40:14;10.20;94.60
33271;DHT22;53180;51.344;6.152;2023-04-01T15:43:00;10.10;94.60
33271;DHT22;53180;51.344;6.152;2023-04-01T15:45:47;10.10;94.70
33271;DHT22;53180;51.344;6.152;2023-04-01T15:48:34;10.10;94.70
33271;DHT22;53180;51.344;6.152;2023-04-01T15:51:16;10.10;94.70
33271;DHT22;53180;51.344;6.152;2023-04-01T15:54:06;10.10;94.70
33271;DHT22;53180;51.344;6.152;2023-04-01T15:56:55;10.10;94.80
33271;DHT22;53180;51.344;6.152;2023-04-01T16:02:46;10.10;94.90
33271;DHT22;53180;51.344;6.152;2023-04-01T16:05:27;10.10;95.00
33271;DHT22;53180;51.344;6.152;2023-04-01T16:08:19;10.10;95.00
33271;DHT22;53180;51.344;6.152;2023-04-01T16:11:21;10.10;95.00
33271;DHT22;53180;51.344;6.152;2023-04-01T16:14:03;10.10;95.00
33271;DHT22;53180;51.344;6.152;2023-04-01T16:16:53;10.10;95.00
33271;DHT22;53180;51.344;6.152;2023-04-01T16:19:37;10.10;95.10
33271;DHT22;53180;51.344;6.152;2023-04-01T16:22:13;10.10;95.10
33271;DHT22;53180;51.344;6.152;2023-04-01T16:24:50;10.10;95.10
33271;DHT22;53180;51.344;6.152;2023-04-01T16:27:25;10.20;95.10
33271;DHT22;53180;51.344;6.152;2023-04-01T16:30:01;10.10;95.10
33271;DHT22;53180;51.344;6.152;2023-04-01T16:32:44;10.10;95.10
33271;DHT22;53180;51.344;6.152;2023-04-01T16:35:23;10.00;95.10
33271;DHT22;53180;51.344;6.152;2023-04-01T16:38:01;10.10;95.10
33271;DHT22;53180;51.344;6.152;2023-04-01T16:40:42;10.10;95.20
33271;DHT22;53180;51.344;6.152;2023-04-01T16:43:19;10.00;95.20
33271;DHT22;53180;51.344;6.152;2023-04-01T16:49:13;10.00;95.20
33271;DHT22;53180;51.344;6.152;2023-04-01T16:51:47;10.00;95.20
33271;DHT22;53180;51.344;6.152;2023-04-01T16:54:28;10.10;95.30
33271;DHT22;53180;51.344;6.152;2023-04-01T16:57:10;10.00;95.20
33271;DHT22;53180;51.344;6.152;2023-04-01T16:59:47;10.00;95.20
33271;DHT22;53180;51.344;6.152;2023-04-01T17:02:23;10.00;95.20
33271;DHT22;53180;51.344;6.152;2023-04-01T17:05:00;9.90;95.30
33271;DHT22;53180;51.344;6.152;2023-04-01T17:07:38;10.00;95.20
33271;DHT22;53180;51.344;6.152;2023-04-01T17:10:25;9.90;95.30
33271;DHT22;53180;51.344;6.152;2023-04-01T17:13:21;9.90;95.30
33271;DHT22;53180;51.344;6.152;2023-04-01T17:19:14;9.90;95.30
33271;DHT22;53180;51.344;6.152;2023-04-01T17:22:00;9.90;95.30
33271;DHT22;53180;51.344;6.152;2023-04-01T17:24:45;9.90;95.30
33271;DHT22;53180;51.344;6.152;2023-04-01T17:27:29;9.90;95.30
33271;DHT22;53180;51.344;6.152;2023-04-01T17:30:12;9.90;95.40
33271;DHT22;53180;51.344;6.152;2023-04-01T17:32:54;9.90;95.30
33271;DHT22;53180;51.344;6.152;2023-04-01T17:35:35;9.80;95.40
33271;DHT22;53180;51.344;6.152;2023-04-01T17:38:19;9.90;95.40
33271;DHT22;53180;51.344;6.152;2023-04-01T17:41:01;9.90;95.40
33271;DHT22;53180;51.344;6.152;2023-04-01T17:43:39;9.80;95.40
33271;DHT22;53180;51.344;6.152;2023-04-01T17:46:27;9.80;95.40
33271;DHT22;53180;51.344;6.152;2023-04-01T17:49:18;9.80;95.40
33271;DHT22;53180;51.344;6.152;2023-04-01T17:51:55;9.80;95.40
33271;DHT22;53180;51.344;6.152;2023-04-01T17:54:37;9.80;95.50
33271;DHT22;53180;51.344;6.152;2023-04-01T17:57:27;9.70;95.50
33271;DHT22;53180;51.344;6.152;2023-04-01T18:00:19;9.70;95.50
33271;DHT22;53180;51.344;6.152;2023-04-01T18:03:00;9.70;95.50
33271;DHT22;53180;51.344;6.152;2023-04-01T18:05:44;9.70;95.50
33271;DHT22;53180;51.344;6.152;2023-04-01T18:08:30;9.70;95.50
33271;DHT22;53180;51.344;6.152;2023-04-01T18:11:14;9.60;95.50
33271;DHT22;53180;51.344;6.152;2023-04-01T18:23:12;9.60;95.50
33271;DHT22;53180;51.344;6.152;2023-04-01T18:25:49;9.50;95.50
33271;DHT22;53180;51.344;6.152;2023-04-01T18:28:31;9.60;95.50
33271;DHT22;53180;51.344;6.152;2023-04-01T18:31:07;9.60;95.50
33271;DHT22;53180;51.344;6.152;2023-04-01T18:33:46;9.50;95.50
33271;DHT22;53180;51.344;6.152;2023-04-01T18:36:22;9.50;95.50
33271;DHT22;53180;51.344;6.152;2023-04-01T18:39:00;9.50;95.50